Time;durP1;ratioP1;P1;durP2;ratioP2;P2;SDS_P1;SDS_P2;PMS_P1;PMS_P2;Temp;Humidity;BMP_temperature;BMP_pressure;BME280_temperature;BME280_humidity;BME280_pressure;Samples;Min_cycle;Max_cycle;Signal;HPM_P1;HPM_P2
2022/12/10 00:01:15;;;;;;;105.50;34.30;;;;;;;0.22;100.00;99980.42;107120;1261;96414;-68
2022/12/10 00:03:40;;;;;;;108.10;34.20;;;;;;;0.22;100.00;99980.60;106947;1247;138159;-69
2022/12/10 00:06:09;;;;;;;116.20;37.50;;;;;;;0.24;100.00;99976.36;107058;1246;96395;-69
2022/12/10 00:08:35;;;;;;;107.90;33.90;;;;;;;0.25;100.00;99978.27;107108;1252;96935;-69
2022/12/10 00:11:03;;;;;;;111.40;34.70;;;;;;;0.25;100.00;99978.27;106980;1253;138020;-69
2022/12/10 00:13:30;;;;;;;120.50;38.10;;;;;;;0.25;100.00;99976.00;107134;1253;96320;-69
2022/12/10 00:15:58;;;;;;;108.80;34.50;;;;;;;0.25;100.00;99976.52;106848;1258;138382;-68
2022/12/10 00:18:23;;;;;;;128.60;39.90;;;;;;;0.23;100.00;99979.19;107187;1238;96286;-69
2022/12/10 00:20:49;;;;;;;111.60;36.80;;;;;;;0.25;100.00;99974.59;107022;1255;96361;-69
2022/12/10 00:23:14;;;;;;;109.50;38.40;;;;;;;0.26;100.00;99980.02;107077;1236;138784;-69
2022/12/10 00:25:39;;;;;;;118.60;38.70;;;;;;;0.28;100.00;99982.63;107204;1244;96338;-69
2022/12/10 00:28:04;;;;;;;96.60;32.40;;;;;;;0.29;100.00;99982.63;107112;1251;138818;-68
2022/12/10 00:30:30;;;;;;;106.60;35.10;;;;;;;0.29;100.00;99981.04;107139;1251;96449;-69
2022/12/10 00:32:55;;;;;;;112.40;37.40;;;;;;;0.29;100.00;99977.18;107224;1256;96364;-68
2022/12/10 00:35:20;;;;;;;105.80;34.60;;;;;;;0.29;100.00;99979.46;107024;1237;137903;-68
2022/12/10 00:37:46;;;;;;;109.30;36.90;;;;;;;0.30;100.00;99982.27;107147;1254;96287;-68
2022/12/10 00:40:11;;;;;;;114.30;36.30;;;;;;;0.31;100.00;99977.51;107070;1255;138372;-68
2022/12/10 00:42:37;;;;;;;112.30;35.10;;;;;;;0.34;100.00;99977.66;107193;1257;96354;-68
2022/12/10 00:45:04;;;;;;;109.60;36.80;;;;;;;0.32;100.00;99979.95;107194;1253;97870;-69
2022/12/10 00:47:29;;;;;;;120.90;37.60;;;;;;;0.34;100.00;99977.46;106893;1254;138120;-69
2022/12/10 00:49:54;;;;;;;113.00;36.90;;;;;;;0.36;100.00;99983.41;107158;1255;95260;-68
2022/12/10 00:52:19;;;;;;;107.70;33.40;;;;;;;0.38;100.00;99983.92;107100;1253;138365;-69
2022/12/10 00:54:45;;;;;;;112.10;35.60;;;;;;;0.36;100.00;99986.58;107115;1245;96017;-69
2022/12/10 00:57:10;;;;;;;114.30;34.60;;;;;;;0.33;100.00;99989.43;107189;1254;96297;-69
2022/12/10 00:59:35;;;;;;;100.10;36.40;;;;;;;0.34;100.00;99990.29;107067;1254;138216;-71
2022/12/10 01:02:00;;;;;;;103.80;35.60;;;;;;;0.38;100.00;99994.99;107274;1254;96341;-70
2022/12/10 01:04:26;;;;;;;92.00;32.10;;;;;;;0.38;100.00;99991.48;107147;1253;138022;-69
2022/12/10 01:06:53;;;;;;;97.50;34.80;;;;;;;0.34;100.00;99989.59;107011;1256;96454;-68
2022/12/10 01:09:22;;;;;;;108.00;34.40;;;;;;;0.30;100.00;99989.81;107155;1245;97143;-68
2022/12/10 01:11:49;;;;;;;106.30;35.30;;;;;;;0.29;100.00;99992.11;107032;1247;138381;-68
2022/12/10 01:14:20;;;;;;;107.20;34.80;;;;;;;0.28;100.00;99989.66;107264;1259;96398;-68
2022/12/10 01:16:46;;;;;;;108.10;36.10;;;;;;;0.30;100.00;99990.86;107032;1247;138260;-69
2022/12/10 01:19:12;;;;;;;114.70;37.70;;;;;;;0.32;100.00;99988.55;106994;1256;96447;-69
2022/12/10 01:21:37;;;;;;;100.50;34.60;;;;;;;0.30;100.00;99985.94;107090;1248;96354;-68
2022/12/10 01:24:03;;;;;;;98.30;32.50;;;;;;;0.27;100.00;99985.12;106993;1257;95168;-69
2022/12/10 01:26:32;;;;;;;97.80;33.10;;;;;;;0.25;100.00;99986.90;107167;1247;96811;-69
2022/12/10 01:28:58;;;;;;;92.60;32.30;;;;;;;0.24;100.00;99990.95;106968;1247;137959;-69
2022/12/10 01:31:35;;;;;;;94.60;32.50;;;;;;;0.25;100.00;99995.33;107050;1256;96195;-67
2022/12/10 01:34:00;;;;;;;101.20;34.80;;;;;;;0.22;100.00;99996.95;107133;1239;138105;-69
2022/12/10 01:36:29;;;;;;;105.10;35.70;;;;;;;0.22;100.00;99992.90;107193;1251;96808;-70
2022/12/10 01:38:55;;;;;;;98.40;34.70;;;;;;;0.22;100.00;99993.95;107168;1252;96291;-70
2022/12/10 01:41:42;;;;;;;101.50;33.10;;;;;;;0.26;100.00;99994.61;107103;1254;138196;-68
2022/12/10 01:44:07;;;;;;;94.30;32.80;;;;;;;0.27;100.00;99993.72;107110;1248;109319;-68
2022/12/10 01:46:35;;;;;;;87.10;30.30;;;;;;;0.24;100.00;99998.33;107129;1246;138076;-69
2022/12/10 01:49:05;;;;;;;95.60;33.80;;;;;;;0.21;100.00;99999.41;107153;1254;96360;-69
2022/12/10 01:51:33;;;;;;;90.80;32.40;;;;;;;0.19;100.00;99993.12;107027;1253;96344;-69
2022/12/10 01:53:59;;;;;;;90.10;31.70;;;;;;;0.20;100.00;99991.00;107048;1241;137852;-69
2022/12/10 01:56:24;;;;;;;90.70;29.90;;;;;;;0.21;100.00;99987.81;107013;1256;96381;-69
2022/12/10 01:58:53;;;;;;;84.10;31.40;;;;;;;0.20;100.00;99989.77;107139;1239;137760;-69
2022/12/10 02:01:36;;;;;;;94.30;34.10;;;;;;;0.22;100.00;99990.27;107193;1253;97410;-69
2022/12/10 02:04:12;;;;;;;83.00;31.60;;;;;;;0.24;100.00;99983.39;106901;1248;138914;-69
2022/12/10 02:06:42;;;;;;;89.40;32.50;;;;;;;0.23;100.00;99981.81;107259;1253;110141;-68
2022/12/10 02:09:38;;;;;;;89.60;33.50;;;;;;;0.22;100.00;99983.42;107171;1246;98590;-69
2022/12/10 02:12:12;;;;;;;89.20;31.90;;;;;;;0.18;100.00;99987.67;107219;1251;106547;-68
2022/12/10 02:14:43;;;;;;;83.70;31.40;;;;;;;0.21;100.00;99986.94;107235;1248;95151;-68
2022/12/10 02:17:20;;;;;;;77.90;29.60;;;;;;;0.21;100.00;99985.01;107146;1246;138030;-69
2022/12/10 02:20:04;;;;;;;80.60;30.50;;;;;;;0.22;100.00;99985.88;107129;1253;110814;-69
2022/12/10 02:22:38;;;;;;;81.40;27.80;;;;;;;0.22;100.00;99986.94;107118;1254;138192;-70
2022/12/10 02:25:06;;;;;;;79.60;29.70;;;;;;;0.21;100.00;99988.88;107120;1238;106659;-69
2022/12/10 02:27:55;;;;;;;69.00;25.40;;;;;;;0.22;100.00;99986.92;107187;1261;96410;-69
2022/12/10 02:30:21;;;;;;;77.60;28.80;;;;;;;0.22;100.00;99987.80;107164;1246;96369;-69
2022/12/10 02:32:49;;;;;;;65.70;24.40;;;;;;;0.18;100.00;99988.21;107223;1254;95262;-68
2022/12/10 02:35:30;;;;;;;85.20;28.80;;;;;;;0.12;100.00;99988.63;107060;1252;138315;-69
2022/12/10 02:38:01;;;;;;;76.80;29.10;;;;;;;0.09;100.00;99985.68;107257;1246;107783;-69
2022/12/10 02:40:30;;;;;;;;;;;;;;;0.06;100.00;99983.61;107119;1247;138804;-69
2022/12/10 02:42:56;;;;;;;84.90;29.10;;;;;;;0.01;100.00;99985.96;107236;1255;96208;-69
2022/12/10 02:45:25;;;;;;;67.60;24.80;;;;;;;-0.01;100.00;99984.77;107009;1249;96396;-70
2022/12/10 02:47:53;;;;;;;76.60;27.10;;;;;;;-0.04;100.00;99981.98;107076;1257;138151;-68
2022/12/10 02:50:21;;;;;;;78.20;27.50;;;;;;;-0.03;100.00;99983.39;107161;1254;107128;-70
2022/12/10 02:52:46;;;;;;;74.80;26.90;;;;;;;-0.01;100.00;99984.42;107060;1255;138503;-69
2022/12/10 02:55:13;;;;;;;75.60;27.90;;;;;;;0.00;100.00;99980.34;107174;1254;96402;-69
2022/12/10 02:58:06;;;;;;;80.80;28.60;;;;;;;0.00;100.00;99983.14;107312;1253;96178;-69
2022/12/10 03:00:40;;;;;;;70.10;26.10;;;;;;;0.05;100.00;99981.67;107012;1245;107522;-69
2022/12/10 03:03:17;;;;;;;70.20;24.80;;;;;;;0.07;100.00;99984.81;107200;1254;96570;-69
2022/12/10 03:06:25;;;;;;;72.60;27.40;;;;;;;0.08;100.00;99986.22;107109;1247;137811;-68
2022/12/10 03:08:58;;;;;;;66.20;23.30;;;;;;;0.01;100.00;99985.08;107182;1247;110907;-68
2022/12/10 03:11:24;;;;;;;69.10;26.70;;;;;;;-0.04;100.00;99985.34;106970;1254;138485;-68
2022/12/10 03:13:59;;;;;;;63.70;23.90;;;;;;;-0.08;100.00;99983.79;107031;1256;96446;-68
2022/12/10 03:16:28;;;;;;;70.80;26.20;;;;;;;-0.07;100.00;99987.30;107006;1249;138851;-68
2022/12/10 03:18:59;;;;;;;57.30;23.10;;;;;;;-0.07;100.00;99988.34;107074;1254;96413;-69
2022/12/10 03:21:27;;;;;;;62.90;23.50;;;;;;;-0.10;100.00;99991.89;107248;1239;107997;-70
2022/12/10 03:23:52;;;;;;;67.20;25.30;;;;;;;-0.14;100.00;99997.55;107186;1239;138728;-69
2022/12/10 03:26:19;;;;;;;60.70;23.10;;;;;;;-0.15;100.00;99998.09;107165;1254;96391;-69
2022/12/10 03:28:50;;;;;;;57.40;21.50;;;;;;;-0.12;100.00;99998.77;107068;1251;138137;-69
2022/12/10 03:31:17;;;;;;;61.40;24.60;;;;;;;-0.13;100.00;100002.81;107161;1253;96355;-70
2022/12/10 03:33:44;;;;;;;55.90;22.90;;;;;;;-0.13;100.00;100005.61;107126;1254;96311;-70
2022/12/10 03:36:11;;;;;;;55.10;20.80;;;;;;;-0.15;100.00;100005.11;106926;1253;138019;-69
2022/12/10 03:38:38;;;;;;;49.80;20.40;;;;;;;-0.17;100.00;100009.00;107108;1247;96768;-69
2022/12/10 03:41:03;;;;;;;58.30;23.40;;;;;;;-0.21;100.00;100009.22;106906;1248;138749;-68
2022/12/10 03:43:29;;;;;;;52.80;21.40;;;;;;;-0.23;100.00;100014.67;107250;1254;96158;-68
2022/12/10 03:45:54;;;;;;;47.40;18.80;;;;;;;-0.27;100.00;100013.66;107034;1251;138506;-70
2022/12/10 03:48:19;;;;;;;46.70;18.90;;;;;;;-0.30;100.00;100015.09;107151;1259;96544;-69
2022/12/10 03:50:44;;;;;;;57.90;22.10;;;;;;;-0.30;100.00;100022.83;107203;1247;96353;-69
2022/12/10 03:53:10;;;;;;;47.20;18.50;;;;;;;-0.34;100.00;100026.73;106976;1249;138761;-69
2022/12/10 03:55:35;;;;;;;51.10;21.50;;;;;;;-0.33;100.00;100027.58;107253;1247;96426;-69
2022/12/10 03:58:01;;;;;;;49.70;20.30;;;;;;;-0.29;100.00;100028.08;107080;1229;138283;-69
2022/12/10 04:00:26;;;;;;;56.00;20.30;;;;;;;-0.26;100.00;100025.95;107168;1254;96402;-69
2022/12/10 04:02:51;;;;;;;50.90;19.70;;;;;;;-0.24;100.00;100025.58;107159;1247;96636;-69
2022/12/10 04:05:17;;;;;;;52.40;20.80;;;;;;;-0.22;100.00;100026.79;107006;1250;139386;-69
2022/12/10 04:07:42;;;;;;;51.50;19.80;;;;;;;-0.19;100.00;100029.03;107306;1250;96271;-69
2022/12/10 04:10:08;;;;;;;52.60;21.50;;;;;;;-0.19;100.00;100027.63;107088;1253;138646;-69
2022/12/10 04:12:33;;;;;;;49.70;20.20;;;;;;;-0.19;100.00;100023.59;107205;1254;96349;-68
2022/12/10 04:17:43;;;;;;;53.90;22.30;;;;;;;-0.17;100.00;100016.38;107069;1245;138207;-68
2022/12/10 04:26:51;;;;;;;47.40;19.60;;;;;;;-0.13;100.00;100014.40;107251;1237;96862;-68
2022/12/10 04:28:22;;;;;;;45.70;19.80;;;;;;;-0.19;100.00;100015.70;107031;1247;138822;-69
2022/12/10 04:30:47;;;;;;;48.90;18.80;;;;;;;-0.24;100.00;100011.17;107186;1230;96274;-69
2022/12/10 04:33:12;;;;;;;49.50;21.10;;;;;;;-0.29;100.00;100010.16;107141;1256;96707;-69
2022/12/10 04:35:37;;;;;;;49.50;19.70;;;;;;;-0.29;100.00;100011.75;107126;1254;138292;-68
2022/12/10 04:38:03;;;;;;;38.40;17.50;;;;;;;-0.26;100.00;100009.97;107207;1244;96277;-69
2022/12/10 04:40:28;;;;;;;39.90;17.90;;;;;;;-0.22;100.00;100016.60;107084;1254;139375;-69
2022/12/10 04:42:53;;;;;;;41.00;16.30;;;;;;;-0.21;100.00;100019.92;107228;1256;96948;-67
2022/12/10 04:45:19;;;;;;;41.80;17.20;;;;;;;-0.22;100.00;100020.64;107203;1246;96323;-69
2022/12/10 04:47:44;;;;;;;46.80;18.30;;;;;;;-0.23;100.00;100023.11;107035;1246;140012;-69
2022/12/10 04:50:09;;;;;;;40.30;16.90;;;;;;;-0.20;100.00;100027.64;107281;1240;97009;-68
2022/12/10 04:52:34;;;;;;;47.00;17.90;;;;;;;-0.19;100.00;100031.31;107053;1242;138108;-68
2022/12/10 04:55:00;;;;;;;38.70;16.20;;;;;;;-0.17;100.00;100030.08;107159;1249;95461;-68
2022/12/10 04:57:25;;;;;;;45.30;17.40;;;;;;;-0.17;100.00;100026.02;107191;1246;108986;-68
2022/12/10 04:59:50;;;;;;;42.00;17.40;;;;;;;-0.15;100.00;100022.48;107135;1238;139264;-68
2022/12/10 05:02:16;;;;;;;44.70;18.40;;;;;;;-0.13;100.00;100021.42;107134;1240;97309;-68
2022/12/10 05:04:41;;;;;;;46.50;20.30;;;;;;;-0.12;100.00;100023.88;106975;1242;138523;-68
2022/12/10 05:07:06;;;;;;;47.40;20.30;;;;;;;-0.11;100.00;100025.80;107217;1239;96256;-69
2022/12/10 05:09:31;;;;;;;51.50;20.40;;;;;;;-0.09;100.00;100027.17;107181;1245;94869;-69
2022/12/10 05:11:57;;;;;;;43.00;19.10;;;;;;;-0.08;100.00;100029.45;107143;1245;139620;-70
2022/12/10 05:14:22;;;;;;;43.90;18.80;;;;;;;-0.05;100.00;100029.25;107213;1254;96314;-69
2022/12/10 05:16:50;;;;;;;47.70;19.50;;;;;;;-0.06;100.00;100028.19;107080;1241;140454;-68
2022/12/10 05:19:15;;;;;;;46.90;19.40;;;;;;;-0.04;99.99;100024.67;107139;1247;96409;-69
2022/12/10 05:24:25;;;;;;;51.10;19.70;;;;;;;-0.02;99.99;100028.15;107193;1253;109814;-69
2022/12/10 05:26:51;;;;;;;44.40;20.30;;;;;;;-0.01;99.99;100031.48;107177;1247;96376;-69
2022/12/10 05:29:17;;;;;;;55.40;21.60;;;;;;;-0.01;99.85;100032.19;107008;1247;138391;-69
2022/12/10 05:31:43;;;;;;;51.50;21.10;;;;;;;0.01;99.93;100036.88;107193;1254;96398;-69
2022/12/10 05:34:10;;;;;;;50.10;20.60;;;;;;;0.00;99.81;100038.12;107024;1247;138233;-69
2022/12/10 05:36:35;;;;;;;57.50;23.50;;;;;;;-0.05;99.65;100036.09;107369;1254;96371;-68
2022/12/10 05:39:00;;;;;;;52.40;22.40;;;;;;;-0.05;99.75;100037.32;107147;1246;100393;-68
2022/12/10 05:41:30;;;;;;;57.60;22.80;;;;;;;-0.03;99.84;100041.69;107095;1240;138830;-69
2022/12/10 05:43:57;;;;;;;58.40;21.60;;;;;;;-0.01;99.81;100041.67;106986;1247;110036;-68
2022/12/10 05:46:25;;;;;;;61.00;24.40;;;;;;;-0.03;99.76;100045.91;106912;1248;138521;-69
2022/12/10 05:48:51;;;;;;;57.20;22.60;;;;;;;-0.03;99.79;100041.70;107027;1251;106086;-68
2022/12/10 05:51:20;;;;;;;66.20;25.20;;;;;;;-0.02;99.77;100039.92;106955;1247;96367;-69
2022/12/10 05:53:46;;;;;;;60.30;24.00;;;;;;;0.03;99.67;100049.51;106961;1254;138041;-69
2022/12/10 05:56:15;;;;;;;64.30;25.20;;;;;;;0.05;99.70;100048.95;107151;1254;96720;-69
2022/12/10 05:58:42;;;;;;;54.60;23.00;;;;;;;0.05;99.71;100043.52;106996;1240;138268;-67
2022/12/10 06:01:14;;;;;;;64.70;25.30;;;;;;;0.04;99.59;100042.99;107006;1232;96961;-68
2022/12/10 06:03:40;;;;;;;59.30;22.10;;;;;;;0.05;99.62;100043.52;107098;1253;96307;-68
2022/12/10 06:06:06;;;;;;;55.30;22.30;;;;;;;0.03;99.58;100047.75;106905;1253;138114;-68
2022/12/10 06:08:33;;;;;;;64.70;24.70;;;;;;;0.00;99.51;100047.61;107218;1237;96286;-68
2022/12/10 06:11:02;;;;;;;66.20;24.60;;;;;;;0.01;99.52;100049.35;107143;1246;137912;-68
2022/12/10 06:13:28;;;;;;;66.80;24.60;;;;;;;-0.01;99.51;100046.23;107234;1247;96305;-69
2022/12/10 06:15:53;;;;;;;60.00;24.50;;;;;;;0.01;99.54;100050.06;107246;1247;95443;-68
2022/12/10 06:18:18;;;;;;;59.30;24.60;;;;;;;0.01;99.60;100053.05;107294;1234;96261;-70
2022/12/10 06:20:44;;;;;;;60.70;24.40;;;;;;;-0.00;99.38;100056.06;107141;1254;95229;-69
2022/12/10 06:23:09;;;;;;;67.10;23.70;;;;;;;-0.00;99.50;100053.23;107216;1253;138881;-69
2022/12/10 06:25:38;;;;;;;62.60;25.60;;;;;;;-0.02;99.39;100048.89;107190;1253;96297;-69
2022/12/10 06:28:04;;;;;;;78.10;26.80;;;;;;;-0.00;99.39;100053.77;107043;1247;138741;-69
2022/12/10 06:30:29;;;;;;;73.50;27.40;;;;;;;0.02;99.53;100054.27;107121;1238;96408;-69
2022/12/10 06:32:55;;;;;;;66.10;26.00;;;;;;;0.06;99.50;100057.38;107236;1256;96314;-69
2022/12/10 06:35:20;;;;;;;68.60;26.50;;;;;;;0.05;99.44;100057.20;107105;1247;138595;-69
2022/12/10 06:37:45;;;;;;;62.00;24.00;;;;;;;0.04;99.31;100054.05;107142;1254;96387;-69
2022/12/10 06:40:11;;;;;;;57.70;23.60;;;;;;;0.00;99.24;100050.23;107134;1247;138146;-69
2022/12/10 06:42:36;;;;;;;66.60;25.20;;;;;;;-0.02;99.12;100045.38;107228;1246;96334;-69
2022/12/10 06:45:02;;;;;;;64.30;24.70;;;;;;;-0.03;99.35;100041.52;107182;1239;96428;-69
2022/12/10 06:47:27;;;;;;;62.40;24.80;;;;;;;-0.12;98.98;100042.84;107022;1240;138081;-69
2022/12/10 06:49:53;;;;;;;62.20;24.70;;;;;;;-0.17;99.12;100042.89;107320;1247;96243;-70
2022/12/10 06:52:18;;;;;;;69.30;26.50;;;;;;;-0.19;99.16;100048.34;107266;1249;139060;-69
2022/12/10 06:54:44;;;;;;;55.10;22.60;;;;;;;-0.20;99.09;100050.12;107290;1239;96316;-70
2022/12/10 06:57:09;;;;;;;62.90;25.10;;;;;;;-0.20;99.25;100050.99;107345;1237;96248;-69
2022/12/10 06:59:35;;;;;;;60.00;24.90;;;;;;;-0.23;99.25;100048.20;107052;1243;138256;-69
2022/12/10 07:02:00;;;;;;;65.20;25.40;;;;;;;-0.26;98.99;100052.63;107086;1248;96307;-70
2022/12/10 07:04:26;;;;;;;67.10;26.20;;;;;;;-0.29;99.09;100051.08;107267;1253;138334;-70
2022/12/10 07:06:52;;;;;;;60.60;24.90;;;;;;;-0.28;99.10;100056.34;107078;1242;97110;-70
2022/12/10 07:09:17;;;;;;;65.20;25.50;;;;;;;-0.27;99.16;100055.63;107235;1240;96559;-69
2022/12/10 07:11:42;;;;;;;58.30;22.80;;;;;;;-0.28;99.05;100056.15;107199;1239;138198;-68
2022/12/10 07:14:14;;;;;;;61.90;24.70;;;;;;;-0.30;99.13;100054.95;107206;1235;96301;-69
2022/12/10 07:16:41;;;;;;;52.00;22.40;;;;;;;-0.31;99.03;100056.00;107126;1249;138750;-70
2022/12/10 07:19:06;;;;;;;53.20;20.90;;;;;;;-0.29;99.14;100055.29;107235;1247;96325;-70
2022/12/10 07:21:34;;;;;;;55.80;21.80;;;;;;;-0.26;99.08;100056.84;107263;1253;96397;-69
2022/12/10 07:24:06;;;;;;;61.20;23.70;;;;;;;-0.25;99.01;100053.15;107003;1240;137947;-69
2022/12/10 07:26:35;;;;;;;60.20;23.00;;;;;;;-0.24;98.91;100048.22;107265;1238;96337;-69
2022/12/10 07:29:02;;;;;;;63.90;23.80;;;;;;;-0.21;99.04;100052.94;107238;1247;138172;-69
2022/12/10 07:31:28;;;;;;;62.60;26.20;;;;;;;-0.17;99.16;100052.19;107289;1240;97131;-69
2022/12/10 07:33:54;;;;;;;60.00;23.90;;;;;;;-0.12;99.09;100052.33;107185;1241;96373;-69
2022/12/10 07:36:22;;;;;;;68.50;25.30;;;;;;;-0.13;99.00;100050.58;107380;1253;96314;-70
2022/12/10 07:38:48;;;;;;;66.90;24.50;;;;;;;-0.16;98.95;100051.66;107251;1252;97505;-67
2022/12/10 07:41:14;;;;;;;62.70;23.30;;;;;;;-0.18;98.75;100049.04;107190;1229;138139;-69
2022/12/10 07:43:41;;;;;;;76.20;27.50;;;;;;;-0.19;98.79;100048.70;107299;1234;96388;-70
2022/12/10 07:46:31;;;;;;;73.20;26.80;;;;;;;-0.22;98.72;100044.85;108581;1242;137996;-71
2022/12/10 07:48:59;;;;;;;72.70;27.10;;;;;;;-0.19;98.87;100046.60;107222;1233;96424;-71
2022/12/10 07:51:25;;;;;;;71.30;26.10;;;;;;;-0.17;98.81;100045.88;107247;1243;97954;-69
2022/12/10 07:53:54;;;;;;;73.60;26.20;;;;;;;-0.14;98.82;100042.86;107175;1251;138578;-69
2022/12/10 07:56:21;;;;;;;77.40;27.00;;;;;;;-0.15;98.81;100046.38;107300;1254;96328;-68
2022/12/10 07:58:46;;;;;;;80.30;29.40;;;;;;;-0.15;98.69;100049.73;107218;1243;138132;-68
2022/12/10 08:01:15;;;;;;;69.60;25.60;;;;;;;-0.11;98.69;100056.52;107173;1239;96277;-68
2022/12/10 08:03:41;;;;;;;75.70;26.30;;;;;;;-0.07;98.92;100059.65;107222;1233;96263;-69
2022/12/10 08:06:09;;;;;;;77.00;27.40;;;;;;;-0.06;98.83;100064.73;107191;1239;139107;-69
2022/12/10 08:08:36;;;;;;;87.70;29.50;;;;;;;-0.05;98.74;100065.07;107250;1247;107599;-69
2022/12/10 08:11:03;;;;;;;87.70;30.60;;;;;;;-0.03;98.76;100067.16;107096;1246;138405;-68
2022/12/10 08:13:29;;;;;;;85.40;28.80;;;;;;;0.02;98.87;100067.79;107232;1247;96306;-68
2022/12/10 08:16:00;;;;;;;78.80;28.00;;;;;;;0.03;98.88;100069.35;107353;1253;96825;-69
2022/12/10 08:18:25;;;;;;;81.60;28.80;;;;;;;0.03;98.81;100071.11;108757;1253;107669;-70
2022/12/10 08:20:52;;;;;;;74.50;28.80;;;;;;;0.00;98.71;100076.77;108726;1246;95048;-69
2022/12/10 08:23:18;;;;;;;83.40;29.40;;;;;;;-0.02;98.66;100076.28;108667;1240;138353;-69
2022/12/10 08:25:45;;;;;;;74.50;28.10;;;;;;;0.01;98.77;100074.84;108652;1247;99780;-70
2022/12/10 08:28:10;;;;;;;84.40;29.80;;;;;;;0.01;98.73;100073.23;107732;1249;138119;-70
2022/12/10 08:30:35;;;;;;;73.30;29.50;;;;;;;0.02;98.72;100068.84;107389;1237;96273;-70
2022/12/10 08:33:00;;;;;;;88.40;31.90;;;;;;;0.04;98.72;100074.26;107217;1248;109021;-71
2022/12/10 08:35:26;;;;;;;76.50;28.30;;;;;;;0.07;98.76;100074.23;107220;1254;138537;-70
2022/12/10 08:37:51;;;;;;;78.60;29.90;;;;;;;0.07;98.69;100073.00;107284;1242;96388;-72
2022/12/10 08:40:16;;;;;;;79.90;30.40;;;;;;;0.07;98.62;100068.09;107104;1246;138047;-74
2022/12/10 08:42:42;;;;;;;80.40;28.30;;;;;;;0.08;98.72;100074.04;107264;1244;96349;-73
2022/12/10 08:45:08;;;;;;;82.40;30.60;;;;;;;0.09;98.63;100076.85;107034;1232;96328;-72
2022/12/10 08:47:33;;;;;;;85.20;30.70;;;;;;;0.10;98.70;100080.36;107068;1245;139219;-73
2022/12/10 08:49:58;;;;;;;84.10;31.50;;;;;;;0.13;98.73;100083.48;107256;1239;95126;-73
2022/12/10 08:52:24;;;;;;;82.50;30.50;;;;;;;0.12;98.63;100085.25;107018;1248;138156;-72
2022/12/10 08:54:49;;;;;;;82.40;29.50;;;;;;;0.12;98.67;100085.25;107202;1233;96356;-73
2022/12/10 08:57:14;;;;;;;77.80;31.10;;;;;;;0.13;98.60;100086.30;107203;1243;96430;-72
2022/12/10 08:59:40;;;;;;;76.10;26.90;;;;;;;0.16;98.72;100090.48;107128;1247;138456;-73
2022/12/10 09:02:05;;;;;;;79.60;27.90;;;;;;;0.12;98.46;100090.35;107243;1246;96275;-73
2022/12/10 09:04:30;;;;;;;72.00;28.30;;;;;;;0.11;98.55;100091.76;107125;1247;138007;-72
2022/12/10 09:06:56;;;;;;;83.30;30.80;;;;;;;0.12;98.65;100096.48;107209;1239;96376;-73
2022/12/10 09:09:21;;;;;;;82.90;30.10;;;;;;;0.14;98.60;100096.99;107188;1261;96291;-72
2022/12/10 09:11:46;;;;;;;67.50;26.50;;;;;;;0.19;98.69;100100.45;107017;1246;138844;-72
2022/12/10 09:14:12;;;;;;;72.60;28.60;;;;;;;0.19;98.54;100099.76;107149;1240;96422;-70
2022/12/10 09:16:41;;;;;;;64.50;25.60;;;;;;;0.21;98.59;100095.52;107008;1238;138802;-71
2022/12/10 09:19:07;;;;;;;68.80;26.00;;;;;;;0.21;98.57;100097.80;107187;1237;99688;-73
2022/12/10 09:21:33;;;;;;;71.90;26.10;;;;;;;0.22;98.53;100096.04;107205;1238;96263;-76
2022/12/10 09:23:58;;;;;;;76.30;26.80;;;;;;;0.25;98.51;100094.95;106998;1248;138527;-77
2022/12/10 09:26:24;;;;;;;68.90;26.80;;;;;;;0.27;98.50;100091.58;107098;1246;96462;-72
2022/12/10 09:28:50;;;;;;;60.80;25.60;;;;;;;0.33;98.60;100087.48;107019;1239;138831;-73
2022/12/10 09:31:18;;;;;;;67.00;27.10;;;;;;;0.33;98.40;100085.55;107178;1230;96301;-74
2022/12/10 09:33:46;;;;;;;63.30;24.80;;;;;;;0.33;98.39;100082.91;107129;1244;96418;-75
2022/12/10 09:36:12;;;;;;;62.60;25.00;;;;;;;0.34;98.36;100080.98;107022;1239;137613;-75
2022/12/10 09:38:40;;;;;;;60.90;25.10;;;;;;;0.35;98.35;100080.09;107043;1246;95193;-74
2022/12/10 09:41:28;;;;;;;54.10;21.30;;;;;;;0.41;98.51;100080.55;107019;1240;138515;-75
2022/12/10 09:44:08;;;;;;;56.30;22.70;;;;;;;0.48;98.41;100079.05;107071;1246;100039;-73
2022/12/10 09:46:52;;;;;;;53.00;23.10;;;;;;;0.47;98.33;100075.20;107122;1245;138177;-74
2022/12/10 09:49:31;;;;;;;61.30;25.30;;;;;;;0.44;98.21;100071.73;107084;1253;109765;-74
2022/12/10 09:52:03;;;;;;;57.00;23.10;;;;;;;0.44;98.20;100073.48;107088;1256;138427;-71
2022/12/10 09:54:49;;;;;;;47.60;19.20;;;;;;;0.46;98.12;100068.71;107017;1240;105535;-69
2022/12/10 09:57:27;;;;;;;49.20;20.20;;;;;;;0.42;98.09;100064.19;107133;1253;96324;-73
2022/12/10 09:59:54;;;;;;;54.10;21.00;;;;;;;0.43;98.06;100063.83;106801;1234;137831;-71
2022/12/10 10:02:28;;;;;;;46.00;19.20;;;;;;;0.49;98.14;100062.00;106966;1237;96250;-74
2022/12/10 10:05:06;;;;;;;51.20;18.90;;;;;;;0.52;98.10;100056.52;107127;1236;137863;-77
2022/12/10 10:07:33;;;;;;;54.30;21.30;;;;;;;0.52;97.97;100061.77;107227;1237;108891;-75
2022/12/10 10:10:19;;;;;;;49.80;19.70;;;;;;;0.57;97.99;100061.73;107051;1238;138667;-76
2022/12/10 10:12:45;;;;;;;43.30;19.50;;;;;;;0.53;97.85;100063.36;107166;1240;96481;-73
2022/12/10 10:15:20;;;;;;;40.60;17.50;;;;;;;0.53;97.81;100062.30;107174;1237;96820;-78
2022/12/10 10:17:49;;;;;;;46.20;19.10;;;;;;;0.53;97.81;100065.64;107055;1236;137873;-78
2022/12/10 10:20:15;;;;;;;43.20;18.10;;;;;;;0.47;97.59;100064.13;107161;1254;107718;-77
2022/12/10 10:22:40;;;;;;;41.50;17.80;;;;;;;0.48;97.54;100063.95;106938;1246;138401;-73
2022/12/10 10:25:13;;;;;;;43.30;18.90;;;;;;;0.47;97.53;100068.52;107163;1232;96382;-76
2022/12/10 10:27:39;;;;;;;43.00;18.30;;;;;;;0.48;97.59;100066.94;107169;1239;99141;-72
2022/12/10 10:30:06;;;;;;;38.90;17.20;;;;;;;0.46;97.51;100067.65;107007;1253;137980;-75
2022/12/10 10:32:35;;;;;;;47.30;18.10;;;;;;;0.45;97.45;100072.06;107067;1240;96343;-72
2022/12/10 10:35:01;;;;;;;40.60;18.10;;;;;;;0.43;97.35;100071.20;107039;1230;138253;-73
2022/12/10 10:37:40;;;;;;;43.70;16.40;;;;;;;0.46;97.34;100071.18;107202;1235;96323;-75
2022/12/10 10:40:20;;;;;;;38.00;15.40;;;;;;;0.47;97.35;100071.16;107022;1236;138364;-73
2022/12/10 10:42:46;;;;;;;42.60;16.60;;;;;;;0.45;97.15;100068.02;107126;1248;107532;-73
2022/12/10 10:45:30;;;;;;;43.90;16.30;;;;;;;0.46;97.28;100068.19;107240;1237;96324;-75
2022/12/10 10:48:17;;;;;;;38.70;15.50;;;;;;;0.48;97.09;100062.02;107178;1237;137892;-74
2022/12/10 10:50:46;;;;;;;36.30;16.40;;;;;;;0.44;97.06;100062.05;107334;1233;109769;-73
2022/12/10 10:53:22;;;;;;;45.00;18.40;;;;;;;0.45;96.92;100056.59;107059;1233;138328;-73
2022/12/10 10:55:48;;;;;;;43.30;17.40;;;;;;;0.49;97.05;100054.62;107142;1240;108494;-74
2022/12/10 10:58:21;;;;;;;41.20;17.00;;;;;;;0.52;97.04;100054.75;107032;1233;138139;-76
2022/12/10 11:01:07;;;;;;;42.10;17.60;;;;;;;0.54;96.91;100049.80;107095;1247;96297;-74
2022/12/10 11:03:35;;;;;;;46.70;17.50;;;;;;;0.50;96.65;100045.98;107074;1254;110046;-78
2022/12/10 11:06:04;;;;;;;38.00;16.20;;;;;;;0.50;96.68;100045.98;107026;1255;138086;-80
2022/12/10 11:08:31;;;;;;;42.50;17.30;;;;;;;0.47;96.57;100047.96;107058;1256;106262;-76
2022/12/10 11:11:13;;;;;;;37.50;16.80;;;;;;;0.46;96.53;100049.73;107012;1243;138615;-76
2022/12/10 11:13:39;;;;;;;40.20;17.30;;;;;;;0.51;96.67;100048.08;107174;1249;96290;-79
2022/12/10 11:16:12;;;;;;;45.10;18.50;;;;;;;0.52;96.62;100048.77;106939;1252;138139;-75